sensor_id;sensor_type;location;lat;lon;timestamp;P1;durP1;ratioP1;P2;durP2;ratioP2
9667;SDS011;4872;48.316;10.650;2024-01-10T05:04:17;46.63;;;30.30;;
9667;SDS011;4872;48.316;10.650;2024-01-10T05:06:44;47.60;;;33.17;;
9667;SDS011;4872;48.316;10.650;2024-01-10T05:09:11;48.80;;;31.43;;
9667;SDS011;4872;48.316;10.650;2024-01-10T05:11:40;51.57;;;33.47;;
9667;SDS011;4872;48.316;10.650;2024-01-10T05:14:07;46.47;;;31.67;;
9667;SDS011;4872;48.316;10.650;2024-01-10T05:16:33;47.60;;;32.60;;
9667;SDS011;4872;48.316;10.650;2024-01-10T05:19:00;51.13;;;32.83;;
9667;SDS011;4872;48.316;10.650;2024-01-10T05:21:30;52.97;;;33.67;;
9667;SDS011;4872;48.316;10.650;2024-01-10T05:23:58;55.00;;;33.73;;
9667;SDS011;4872;48.316;10.650;2024-01-10T05:26:25;49.77;;;32.30;;
9667;SDS011;4872;48.316;10.650;2024-01-10T05:28:51;52.10;;;34.10;;
9667;SDS011;4872;48.316;10.650;2024-01-10T05:31:18;47.70;;;32.27;;
9667;SDS011;4872;48.316;10.650;2024-01-10T05:33:45;51.60;;;32.50;;
9667;SDS011;4872;48.316;10.650;2024-01-10T05:36:12;49.27;;;33.67;;
9667;SDS011;4872;48.316;10.650;2024-01-10T05:38:40;50.87;;;33.37;;
9667;SDS011;4872;48.316;10.650;2024-01-10T05:41:07;51.83;;;33.60;;
9667;SDS011;4872;48.316;10.650;2024-01-10T05:43:33;49.73;;;34.03;;
9667;SDS011;4872;48.316;10.650;2024-01-10T05:46:00;51.23;;;30.97;;
9667;SDS011;4872;48.316;10.650;2024-01-10T05:48:29;52.73;;;35.60;;
9667;SDS011;4872;48.316;10.650;2024-01-10T05:50:57;50.03;;;31.53;;
9667;SDS011;4872;48.316;10.650;2024-01-10T05:53:23;46.57;;;30.33;;
9667;SDS011;4872;48.316;10.650;2024-01-10T05:55:52;52.63;;;33.03;;
9667;SDS011;4872;48.316;10.650;2024-01-10T05:58:19;51.53;;;31.60;;
9667;SDS011;4872;48.316;10.650;2024-01-10T06:00:46;51.90;;;32.13;;
9667;SDS011;4872;48.316;10.650;2024-01-10T06:03:13;53.73;;;32.27;;
9667;SDS011;4872;48.316;10.650;2024-01-10T06:05:39;56.63;;;34.93;;
9667;SDS011;4872;48.316;10.650;2024-01-10T06:08:06;48.20;;;33.17;;
9667;SDS011;4872;48.316;10.650;2024-01-10T06:10:33;53.90;;;34.20;;
9667;SDS011;4872;48.316;10.650;2024-01-10T06:13:02;51.27;;;33.43;;
9667;SDS011;4872;48.316;10.650;2024-01-10T06:15:28;52.37;;;34.57;;
9667;SDS011;4872;48.316;10.650;2024-01-10T06:17:55;53.60;;;33.70;;
9667;SDS011;4872;48.316;10.650;2024-01-10T06:20:22;54.57;;;34.27;;
9667;SDS011;4872;48.316;10.650;2024-01-10T06:22:49;50.80;;;33.87;;
9667;SDS011;4872;48.316;10.650;2024-01-10T06:25:15;48.90;;;31.97;;
9667;SDS011;4872;48.316;10.650;2024-01-10T06:27:42;50.07;;;32.50;;
9667;SDS011;4872;48.316;10.650;2024-01-10T06:30:10;53.47;;;35.47;;
9667;SDS011;4872;48.316;10.650;2024-01-10T06:32:37;47.70;;;32.37;;
9667;SDS011;4872;48.316;10.650;2024-01-10T06:35:04;53.60;;;33.23;;
9667;SDS011;4872;48.316;10.650;2024-01-10T06:37:33;46.83;;;32.40;;
9667;SDS011;4872;48.316;10.650;2024-01-10T06:40:00;48.37;;;31.87;;
9667;SDS011;4872;48.316;10.650;2024-01-10T06:42:29;48.93;;;33.20;;
9667;SDS011;4872;48.316;10.650;2024-01-10T06:44:55;53.20;;;34.07;;
9667;SDS011;4872;48.316;10.650;2024-01-10T06:47:23;53.77;;;35.37;;
9667;SDS011;4872;48.316;10.650;2024-01-10T06:49:50;55.40;;;35.67;;
9667;SDS011;4872;48.316;10.650;2024-01-10T06:52:17;60.07;;;35.37;;
9667;SDS011;4872;48.316;10.650;2024-01-10T06:54:44;57.77;;;36.83;;
9667;SDS011;4872;48.316;10.650;2024-01-10T06:57:10;49.10;;;32.20;;
9667;SDS011;4872;48.316;10.650;2024-01-10T06:59:37;55.70;;;34.80;;
9667;SDS011;4872;48.316;10.650;2024-01-10T07:02:04;53.03;;;36.33;;
9667;SDS011;4872;48.316;10.650;2024-01-10T07:04:32;53.70;;;35.93;;
9667;SDS011;4872;48.316;10.650;2024-01-10T07:07:00;57.00;;;36.37;;
9667;SDS011;4872;48.316;10.650;2024-01-10T07:09:27;54.40;;;34.10;;
9667;SDS011;4872;48.316;10.650;2024-01-10T07:11:54;56.47;;;35.50;;
9667;SDS011;4872;48.316;10.650;2024-01-10T07:14:21;55.27;;;34.87;;
9667;SDS011;4872;48.316;10.650;2024-01-10T07:16:48;55.27;;;33.93;;
9667;SDS011;4872;48.316;10.650;2024-01-10T07:19:14;52.53;;;33.53;;
9667;SDS011;4872;48.316;10.650;2024-01-10T07:21:43;55.03;;;34.87;;
9667;SDS011;4872;48.316;10.650;2024-01-10T07:24:09;58.07;;;36.60;;
9667;SDS011;4872;48.316;10.650;2024-01-10T07:26:37;52.53;;;35.27;;
9667;SDS011;4872;48.316;10.650;2024-01-10T07:29:04;55.03;;;34.60;;
9667;SDS011;4872;48.316;10.650;2024-01-10T07:31:33;51.67;;;32.03;;
9667;SDS011;4872;48.316;10.650;2024-01-10T07:34:00;55.17;;;33.80;;
9667;SDS011;4872;48.316;10.650;2024-01-10T07:36:26;55.50;;;32.53;;
9667;SDS011;4872;48.316;10.650;2024-01-10T07:38:56;53.80;;;34.73;;
9667;SDS011;4872;48.316;10.650;2024-01-10T07:41:23;56.50;;;33.90;;
9667;SDS011;4872;48.316;10.650;2024-01-10T07:43:50;52.07;;;33.07;;
9667;SDS011;4872;48.316;10.650;2024-01-10T07:46:17;49.63;;;32.90;;
9667;SDS011;4872;48.316;10.650;2024-01-10T07:48:44;53.67;;;32.53;;
9667;SDS011;4872;48.316;10.650;2024-01-10T07:51:10;53.77;;;33.47;;
9667;SDS011;4872;48.316;10.650;2024-01-10T07:53:37;51.43;;;32.43;;
9667;SDS011;4872;48.316;10.650;2024-01-10T07:56:06;53.53;;;34.37;;
9667;SDS011;4872;48.316;10.650;2024-01-10T07:58:32;56.63;;;35.70;;
9667;SDS011;4872;48.316;10.650;2024-01-10T08:00:59;54.33;;;34.43;;
9667;SDS011;4872;48.316;10.650;2024-01-10T08:03:40;55.70;;;34.97;;
9667;SDS011;4872;48.316;10.650;2024-01-10T08:06:07;55.90;;;35.63;;
9667;SDS011;4872;48.316;10.650;2024-01-10T08:08:35;52.13;;;34.80;;
9667;SDS011;4872;48.316;10.650;2024-01-10T08:11:02;54.40;;;34.00;;
9667;SDS011;4872;48.316;10.650;2024-01-10T08:13:30;56.97;;;35.73;;
9667;SDS011;4872;48.316;10.650;2024-01-10T08:15:57;51.03;;;33.63;;
9667;SDS011;4872;48.316;10.650;2024-01-10T08:18:24;55.67;;;33.37;;
9667;SDS011;4872;48.316;10.650;2024-01-10T08:20:50;56.67;;;33.77;;
9667;SDS011;4872;48.316;10.650;2024-01-10T08:23:17;54.83;;;33.17;;
9667;SDS011;4872;48.316;10.650;2024-01-10T08:25:46;53.17;;;33.10;;
9667;SDS011;4872;48.316;10.650;2024-01-10T08:28:12;49.73;;;32.23;;
9667;SDS011;4872;48.316;10.650;2024-01-10T08:30:42;55.83;;;33.43;;
9667;SDS011;4872;48.316;10.650;2024-01-10T08:33:17;53.03;;;31.87;;
9667;SDS011;4872;48.316;10.650;2024-01-10T08:35:43;52.47;;;32.50;;
9667;SDS011;4872;48.316;10.650;2024-01-10T08:38:11;51.57;;;31.77;;
9667;SDS011;4872;48.316;10.650;2024-01-10T08:40:37;47.03;;;29.73;;
9667;SDS011;4872;48.316;10.650;2024-01-10T08:43:04;48.73;;;30.53;;
9667;SDS011;4872;48.316;10.650;2024-01-10T08:45:31;51.10;;;32.73;;
9667;SDS011;4872;48.316;10.650;2024-01-10T08:47:59;51.80;;;30.40;;
9667;SDS011;4872;48.316;10.650;2024-01-10T08:50:26;48.93;;;29.43;;
9667;SDS011;4872;48.316;10.650;2024-01-10T08:52:52;48.87;;;29.80;;
9667;SDS011;4872;48.316;10.650;2024-01-10T08:55:19;49.70;;;31.03;;
9667;SDS011;4872;48.316;10.650;2024-01-10T08:57:46;50.97;;;31.90;;
9667;SDS011;4872;48.316;10.650;2024-01-10T09:00:14;52.37;;;30.80;;
9667;SDS011;4872;48.316;10.650;2024-01-10T09:02:41;48.80;;;30.30;;
9667;SDS011;4872;48.316;10.650;2024-01-10T09:05:09;51.20;;;30.83;;
9667;SDS011;4872;48.316;10.650;2024-01-10T09:07:36;51.37;;;29.90;;
9667;SDS011;4872;48.316;10.650;2024-01-10T09:10:03;52.80;;;32.43;;
9667;SDS011;4872;48.316;10.650;2024-01-10T09:12:32;49.03;;;29.77;;
9667;SDS011;4872;48.316;10.650;2024-01-10T09:14:59;54.27;;;32.43;;
9667;SDS011;4872;48.316;10.650;2024-01-10T09:17:26;45.40;;;30.47;;
9667;SDS011;4872;48.316;10.650;2024-01-10T09:19:53;48.70;;;31.17;;
9667;SDS011;4872;48.316;10.650;2024-01-10T09:22:21;52.67;;;31.27;;
9667;SDS011;4872;48.316;10.650;2024-01-10T09:24:48;48.37;;;30.13;;
9667;SDS011;4872;48.316;10.650;2024-01-10T09:27:15;45.30;;;29.00;;
9667;SDS011;4872;48.316;10.650;2024-01-10T09:29:41;51.60;;;29.23;;
9667;SDS011;4872;48.316;10.650;2024-01-10T09:32:11;48.50;;;29.80;;
9667;SDS011;4872;48.316;10.650;2024-01-10T09:34:40;47.63;;;30.23;;
9667;SDS011;4872;48.316;10.650;2024-01-10T09:37:07;51.87;;;32.70;;
9667;SDS011;4872;48.316;10.650;2024-01-10T09:39:49;50.10;;;30.90;;
9667;SDS011;4872;48.316;10.650;2024-01-10T09:42:17;47.47;;;30.57;;
9667;SDS011;4872;48.316;10.650;2024-01-10T09:44:45;49.33;;;30.47;;
9667;SDS011;4872;48.316;10.650;2024-01-10T09:47:13;51.20;;;31.40;;
9667;SDS011;4872;48.316;10.650;2024-01-10T09:49:42;57.20;;;31.90;;
9667;SDS011;4872;48.316;10.650;2024-01-10T09:52:10;49.63;;;30.57;;
9667;SDS011;4872;48.316;10.650;2024-01-10T09:54:39;46.10;;;30.53;;
9667;SDS011;4872;48.316;10.650;2024-01-10T09:57:08;51.93;;;32.20;;
9667;SDS011;4872;48.316;10.650;2024-01-10T09:59:36;51.83;;;31.10;;
9667;SDS011;4872;48.316;10.650;2024-01-10T10:02:03;49.20;;;31.63;;
9667;SDS011;4872;48.316;10.650;2024-01-10T10:04:30;50.13;;;31.63;;
9667;SDS011;4872;48.316;10.650;2024-01-10T10:07:09;48.60;;;29.83;;
9667;SDS011;4872;48.316;10.650;2024-01-10T10:09:35;50.73;;;30.83;;
9667;SDS011;4872;48.316;10.650;2024-01-10T10:12:05;50.97;;;31.87;;
9667;SDS011;4872;48.316;10.650;2024-01-10T10:14:33;51.77;;;33.00;;
9667;SDS011;4872;48.316;10.650;2024-01-10T10:17:15;47.37;;;30.00;;
9667;SDS011;4872;48.316;10.650;2024-01-10T10:19:43;47.53;;;30.27;;
9667;SDS011;4872;48.316;10.650;2024-01-10T10:22:10;50.13;;;31.67;;
9667;SDS011;4872;48.316;10.650;2024-01-10T10:24:37;52.60;;;32.50;;
9667;SDS011;4872;48.316;10.650;2024-01-10T10:27:08;46.37;;;30.43;;
9667;SDS011;4872;48.316;10.650;2024-01-10T10:29:41;51.00;;;31.50;;
9667;SDS011;4872;48.316;10.650;2024-01-10T10:32:08;45.20;;;30.33;;
9667;SDS011;4872;48.316;10.650;2024-01-10T10:34:35;49.10;;;30.47;;
9667;SDS011;4872;48.316;10.650;2024-01-10T10:37:02;47.40;;;29.87;;
9667;SDS011;4872;48.316;10.650;2024-01-10T10:39:29;48.53;;;30.57;;
9667;SDS011;4872;48.316;10.650;2024-01-10T10:41:56;47.13;;;28.67;;
9667;SDS011;4872;48.316;10.650;2024-01-10T10:44:23;48.70;;;31.77;;
9667;SDS011;4872;48.316;10.650;2024-01-10T10:46:52;49.20;;;31.20;;
9667;SDS011;4872;48.316;10.650;2024-01-10T10:49:22;48.60;;;30.07;;
9667;SDS011;4872;48.316;10.650;2024-01-10T10:51:55;49.10;;;30.60;;
9667;SDS011;4872;48.316;10.650;2024-01-10T10:54:26;44.57;;;30.33;;
9667;SDS011;4872;48.316;10.650;2024-01-10T10:56:57;49.03;;;30.53;;
9667;SDS011;4872;48.316;10.650;2024-01-10T10:59:25;49.50;;;30.63;;
9667;SDS011;4872;48.316;10.650;2024-01-10T11:01:54;46.03;;;28.63;;
9667;SDS011;4872;48.316;10.650;2024-01-10T11:04:22;49.17;;;29.63;;
9667;SDS011;4872;48.316;10.650;2024-01-10T11:06:49;45.60;;;29.00;;
9667;SDS011;4872;48.316;10.650;2024-01-10T11:09:16;44.47;;;28.33;;
9667;SDS011;4872;48.316;10.650;2024-01-10T11:11:50;43.63;;;29.53;;
9667;SDS011;4872;48.316;10.650;2024-01-10T11:14:35;40.73;;;27.00;;
9667;SDS011;4872;48.316;10.650;2024-01-10T11:20:13;42.87;;;28.17;;
9667;SDS011;4872;48.316;10.650;2024-01-10T11:22:46;45.33;;;29.17;;
9667;SDS011;4872;48.316;10.650;2024-01-10T11:25:22;41.10;;;27.63;;
9667;SDS011;4872;48.316;10.650;2024-01-10T11:27:51;41.10;;;26.07;;
9667;SDS011;4872;48.316;10.650;2024-01-10T11:30:29;44.03;;;26.50;;
9667;SDS011;4872;48.316;10.650;2024-01-10T11:33:02;39.70;;;26.57;;
9667;SDS011;4872;48.316;10.650;2024-01-10T11:35:45;45.57;;;27.90;;
9667;SDS011;4872;48.316;10.650;2024-01-10T11:38:32;41.83;;;26.83;;
9667;SDS011;4872;48.316;10.650;2024-01-10T11:40:59;43.87;;;28.17;;
9667;SDS011;4872;48.316;10.650;2024-01-10T11:43:27;42.87;;;27.93;;
9667;SDS011;4872;48.316;10.650;2024-01-10T11:45:54;45.00;;;27.30;;
9667;SDS011;4872;48.316;10.650;2024-01-10T11:51:11;42.10;;;26.80;;
9667;SDS011;4872;48.316;10.650;2024-01-10T11:53:43;40.20;;;26.23;;
9667;SDS011;4872;48.316;10.650;2024-01-10T11:56:12;39.23;;;27.07;;
9667;SDS011;4872;48.316;10.650;2024-01-10T11:58:54;37.43;;;25.63;;
9667;SDS011;4872;48.316;10.650;2024-01-10T12:01:22;40.73;;;26.70;;
9667;SDS011;4872;48.316;10.650;2024-01-10T12:03:51;43.13;;;27.63;;
9667;SDS011;4872;48.316;10.650;2024-01-10T12:06:19;42.10;;;26.20;;
9667;SDS011;4872;48.316;10.650;2024-01-10T12:08:47;40.53;;;26.87;;
9667;SDS011;4872;48.316;10.650;2024-01-10T12:11:15;40.03;;;26.07;;
9667;SDS011;4872;48.316;10.650;2024-01-10T12:13:42;37.90;;;25.07;;
9667;SDS011;4872;48.316;10.650;2024-01-10T12:16:10;41.13;;;25.10;;
9667;SDS011;4872;48.316;10.650;2024-01-10T12:18:38;34.47;;;24.87;;
9667;SDS011;4872;48.316;10.650;2024-01-10T12:21:06;36.27;;;25.73;;
9667;SDS011;4872;48.316;10.650;2024-01-10T12:23:35;35.13;;;26.07;;
9667;SDS011;4872;48.316;10.650;2024-01-10T12:26:03;34.80;;;25.33;;
9667;SDS011;4872;48.316;10.650;2024-01-10T12:28:32;33.10;;;24.83;;
9667;SDS011;4872;48.316;10.650;2024-01-10T12:30:59;36.20;;;25.67;;
9667;SDS011;4872;48.316;10.650;2024-01-10T12:33:26;34.47;;;25.83;;
9667;SDS011;4872;48.316;10.650;2024-01-10T12:36:07;40.43;;;27.57;;
9667;SDS011;4872;48.316;10.650;2024-01-10T12:38:35;37.57;;;26.50;;
9667;SDS011;4872;48.316;10.650;2024-01-10T12:41:03;40.43;;;27.43;;
9667;SDS011;4872;48.316;10.650;2024-01-10T12:43:30;37.60;;;26.60;;
9667;SDS011;4872;48.316;10.650;2024-01-10T12:49:09;36.50;;;27.23;;
9667;SDS011;4872;48.316;10.650;2024-01-10T12:51:37;39.33;;;28.10;;
9667;SDS011;4872;48.316;10.650;2024-01-10T12:54:04;38.13;;;27.10;;
9667;SDS011;4872;48.316;10.650;2024-01-10T12:56:30;42.97;;;29.73;;
9667;SDS011;4872;48.316;10.650;2024-01-10T12:58:57;41.23;;;28.40;;
9667;SDS011;4872;48.316;10.650;2024-01-10T13:01:24;40.50;;;28.33;;
9667;SDS011;4872;48.316;10.650;2024-01-10T13:03:51;42.27;;;28.53;;
9667;SDS011;4872;48.316;10.650;2024-01-10T13:06:18;40.00;;;28.17;;
9667;SDS011;4872;48.316;10.650;2024-01-10T13:08:48;40.97;;;28.73;;
9667;SDS011;4872;48.316;10.650;2024-01-10T13:11:15;44.37;;;30.43;;
9667;SDS011;4872;48.316;10.650;2024-01-10T13:13:42;42.97;;;29.00;;
9667;SDS011;4872;48.316;10.650;2024-01-10T13:16:09;45.10;;;30.43;;
9667;SDS011;4872;48.316;10.650;2024-01-10T13:18:38;45.80;;;31.07;;
9667;SDS011;4872;48.316;10.650;2024-01-10T13:21:06;43.83;;;31.10;;
9667;SDS011;4872;48.316;10.650;2024-01-10T13:23:33;45.70;;;32.30;;
9667;SDS011;4872;48.316;10.650;2024-01-10T13:26:03;47.13;;;31.27;;
9667;SDS011;4872;48.316;10.650;2024-01-10T13:28:29;48.10;;;32.67;;
9667;SDS011;4872;48.316;10.650;2024-01-10T13:30:56;49.70;;;32.80;;
9667;SDS011;4872;48.316;10.650;2024-01-10T13:33:23;47.90;;;32.77;;
9667;SDS011;4872;48.316;10.650;2024-01-10T13:35:51;49.67;;;32.53;;
9667;SDS011;4872;48.316;10.650;2024-01-10T13:38:19;50.97;;;33.47;;
9667;SDS011;4872;48.316;10.650;2024-01-10T13:40:46;51.90;;;32.43;;
9667;SDS011;4872;48.316;10.650;2024-01-10T13:43:15;53.50;;;32.73;;
9667;SDS011;4872;48.316;10.650;2024-01-10T13:45:42;50.97;;;33.93;;
9667;SDS011;4872;48.316;10.650;2024-01-10T13:48:09;47.93;;;32.90;;
9667;SDS011;4872;48.316;10.650;2024-01-10T13:50:36;45.50;;;31.27;;
9667;SDS011;4872;48.316;10.650;2024-01-10T13:53:02;51.00;;;32.73;;
9667;SDS011;4872;48.316;10.650;2024-01-10T13:55:30;50.53;;;33.17;;
9667;SDS011;4872;48.316;10.650;2024-01-10T13:57:57;52.13;;;33.33;;
9667;SDS011;4872;48.316;10.650;2024-01-10T14:00:25;54.80;;;32.97;;
9667;SDS011;4872;48.316;10.650;2024-01-10T14:02:52;50.30;;;33.27;;
9667;SDS011;4872;48.316;10.650;2024-01-10T14:05:24;52.13;;;33.30;;
9667;SDS011;4872;48.316;10.650;2024-01-10T14:07:51;53.03;;;33.70;;
9667;SDS011;4872;48.316;10.650;2024-01-10T14:10:18;53.07;;;32.63;;
9667;SDS011;4872;48.316;10.650;2024-01-10T14:12:45;50.77;;;33.50;;
9667;SDS011;4872;48.316;10.650;2024-01-10T14:15:12;51.10;;;33.33;;
9667;SDS011;4872;48.316;10.650;2024-01-10T14:17:41;50.73;;;34.00;;
9667;SDS011;4872;48.316;10.650;2024-01-10T14:20:08;54.23;;;34.87;;
9667;SDS011;4872;48.316;10.650;2024-01-10T14:22:35;51.00;;;32.97;;
9667;SDS011;4872;48.316;10.650;2024-01-10T14:25:02;53.13;;;33.23;;
9667;SDS011;4872;48.316;10.650;2024-01-10T14:27:30;50.67;;;31.67;;
9667;SDS011;4872;48.316;10.650;2024-01-10T14:29:57;51.20;;;32.73;;
9667;SDS011;4872;48.316;10.650;2024-01-10T14:32:24;49.20;;;33.30;;
9667;SDS011;4872;48.316;10.650;2024-01-10T14:34:53;54.10;;;33.87;;
9667;SDS011;4872;48.316;10.650;2024-01-10T14:37:20;51.93;;;32.63;;
9667;SDS011;4872;48.316;10.650;2024-01-10T14:39:46;48.03;;;32.13;;
9667;SDS011;4872;48.316;10.650;2024-01-10T14:42:13;56.97;;;34.40;;
9667;SDS011;4872;48.316;10.650;2024-01-10T14:44:40;51.27;;;31.23;;
9667;SDS011;4872;48.316;10.650;2024-01-10T14:47:07;51.77;;;33.57;;
9667;SDS011;4872;48.316;10.650;2024-01-10T14:49:36;52.87;;;34.50;;
9667;SDS011;4872;48.316;10.650;2024-01-10T14:52:05;47.57;;;31.77;;
9667;SDS011;4872;48.316;10.650;2024-01-10T14:54:32;56.77;;;33.33;;
9667;SDS011;4872;48.316;10.650;2024-01-10T14:56:59;54.77;;;33.43;;
9667;SDS011;4872;48.316;10.650;2024-01-10T14:59:26;60.60;;;35.30;;
9667;SDS011;4872;48.316;10.650;2024-01-10T15:01:54;49.97;;;31.90;;
9667;SDS011;4872;48.316;10.650;2024-01-10T15:04:21;53.73;;;33.30;;
9667;SDS011;4872;48.316;10.650;2024-01-10T15:06:48;57.40;;;34.63;;
9667;SDS011;4872;48.316;10.650;2024-01-10T15:09:16;48.93;;;32.70;;
9667;SDS011;4872;48.316;10.650;2024-01-10T15:11:44;51.70;;;31.57;;
9667;SDS011;4872;48.316;10.650;2024-01-10T15:14:10;50.13;;;32.13;;
9667;SDS011;4872;48.316;10.650;2024-01-10T15:16:37;51.30;;;30.67;;
9667;SDS011;4872;48.316;10.650;2024-01-10T15:19:04;48.03;;;30.97;;
9667;SDS011;4872;48.316;10.650;2024-01-10T15:21:31;56.00;;;34.43;;
9667;SDS011;4872;48.316;10.650;2024-01-10T15:23:57;51.97;;;33.13;;
9667;SDS011;4872;48.316;10.650;2024-01-10T15:26:25;53.30;;;32.20;;
9667;SDS011;4872;48.316;10.650;2024-01-10T15:28:52;57.63;;;33.23;;
9667;SDS011;4872;48.316;10.650;2024-01-10T15:31:20;54.87;;;31.97;;
9667;SDS011;4872;48.316;10.650;2024-01-10T15:33:47;53.33;;;32.47;;
9667;SDS011;4872;48.316;10.650;2024-01-10T15:36:14;75.43;;;42.13;;
9667;SDS011;4872;48.316;10.650;2024-01-10T15:38:41;63.77;;;38.50;;
9667;SDS011;4872;48.316;10.650;2024-01-10T15:41:08;56.43;;;34.63;;
9667;SDS011;4872;48.316;10.650;2024-01-10T15:43:37;59.63;;;39.77;;
9667;SDS011;4872;48.316;10.650;2024-01-10T15:46:04;66.90;;;41.00;;
9667;SDS011;4872;48.316;10.650;2024-01-10T15:48:31;71.20;;;39.33;;
9667;SDS011;4872;48.316;10.650;2024-01-10T15:50:58;82.60;;;49.47;;
9667;SDS011;4872;48.316;10.650;2024-01-10T15:53:25;62.83;;;36.93;;
9667;SDS011;4872;48.316;10.650;2024-01-10T15:55:52;54.00;;;32.43;;
9667;SDS011;4872;48.316;10.650;2024-01-10T15:58:21;55.30;;;32.30;;
9667;SDS011;4872;48.316;10.650;2024-01-10T16:00:49;55.93;;;31.80;;
9667;SDS011;4872;48.316;10.650;2024-01-10T16:03:15;49.47;;;30.67;;
9667;SDS011;4872;48.316;10.650;2024-01-10T16:05:43;51.23;;;31.73;;
9667;SDS011;4872;48.316;10.650;2024-01-10T16:08:10;53.43;;;31.77;;
9667;SDS011;4872;48.316;10.650;2024-01-10T16:10:37;65.73;;;39.30;;
9667;SDS011;4872;48.316;10.650;2024-01-10T16:13:04;54.60;;;34.50;;
9667;SDS011;4872;48.316;10.650;2024-01-10T16:15:32;56.57;;;33.30;;
9667;SDS011;4872;48.316;10.650;2024-01-10T16:18:00;55.17;;;31.63;;
9667;SDS011;4872;48.316;10.650;2024-01-10T16:20:27;76.60;;;42.90;;
9667;SDS011;4872;48.316;10.650;2024-01-10T16:22:54;58.23;;;33.10;;
9667;SDS011;4872;48.316;10.650;2024-01-10T16:25:20;57.93;;;32.37;;
9667;SDS011;4872;48.316;10.650;2024-01-10T16:27:47;55.27;;;31.37;;
9667;SDS011;4872;48.316;10.650;2024-01-10T16:30:15;57.10;;;32.63;;
9667;SDS011;4872;48.316;10.650;2024-01-10T16:32:41;56.53;;;33.43;;
9667;SDS011;4872;48.316;10.650;2024-01-10T16:35:09;55.37;;;30.77;;
9667;SDS011;4872;48.316;10.650;2024-01-10T16:37:36;59.50;;;34.50;;
9667;SDS011;4872;48.316;10.650;2024-01-10T16:40:03;63.57;;;37.17;;
9667;SDS011;4872;48.316;10.650;2024-01-10T16:42:49;57.63;;;36.27;;
9667;SDS011;4872;48.316;10.650;2024-01-10T16:45:20;62.23;;;35.77;;
9667;SDS011;4872;48.316;10.650;2024-01-10T16:47:47;57.50;;;36.43;;
9667;SDS011;4872;48.316;10.650;2024-01-10T16:50:17;63.30;;;36.53;;
9667;SDS011;4872;48.316;10.650;2024-01-10T16:52:44;67.70;;;38.30;;
9667;SDS011;4872;48.316;10.650;2024-01-10T16:55:10;65.27;;;37.50;;
9667;SDS011;4872;48.316;10.650;2024-01-10T16:57:39;63.33;;;35.73;;
9667;SDS011;4872;48.316;10.650;2024-01-10T17:00:06;69.80;;;39.73;;
9667;SDS011;4872;48.316;10.650;2024-01-10T17:02:34;71.07;;;38.10;;
9667;SDS011;4872;48.316;10.650;2024-01-10T17:05:00;66.23;;;38.57;;
9667;SDS011;4872;48.316;10.650;2024-01-10T17:07:29;65.33;;;36.60;;
9667;SDS011;4872;48.316;10.650;2024-01-10T17:09:56;70.23;;;41.73;;
9667;SDS011;4872;48.316;10.650;2024-01-10T17:12:23;79.40;;;47.37;;
9667;SDS011;4872;48.316;10.650;2024-01-10T17:14:50;82.93;;;49.83;;
9667;SDS011;4872;48.316;10.650;2024-01-10T17:17:16;73.83;;;42.60;;
9667;SDS011;4872;48.316;10.650;2024-01-10T17:19:43;69.70;;;38.27;;
9667;SDS011;4872;48.316;10.650;2024-01-10T17:22:10;67.97;;;38.30;;
9667;SDS011;4872;48.316;10.650;2024-01-10T17:24:40;70.23;;;39.07;;
9667;SDS011;4872;48.316;10.650;2024-01-10T17:27:07;68.63;;;38.03;;
9667;SDS011;4872;48.316;10.650;2024-01-10T17:29:33;71.80;;;41.23;;
9667;SDS011;4872;48.316;10.650;2024-01-10T17:32:00;67.00;;;40.47;;
9667;SDS011;4872;48.316;10.650;2024-01-10T17:34:27;61.70;;;37.47;;
9667;SDS011;4872;48.316;10.650;2024-01-10T17:36:54;71.10;;;40.83;;
9667;SDS011;4872;48.316;10.650;2024-01-10T17:39:21;69.27;;;36.63;;
9667;SDS011;4872;48.316;10.650;2024-01-10T17:41:49;57.10;;;35.37;;
9667;SDS011;4872;48.316;10.650;2024-01-10T17:44:16;57.63;;;33.80;;
9667;SDS011;4872;48.316;10.650;2024-01-10T17:46:44;54.30;;;31.87;;
9667;SDS011;4872;48.316;10.650;2024-01-10T17:49:10;58.10;;;33.17;;
9667;SDS011;4872;48.316;10.650;2024-01-10T17:51:37;62.23;;;35.00;;
9667;SDS011;4872;48.316;10.650;2024-01-10T17:54:04;57.20;;;31.93;;
9667;SDS011;4872;48.316;10.650;2024-01-10T17:56:31;59.97;;;34.47;;
9667;SDS011;4872;48.316;10.650;2024-01-10T17:59:00;59.87;;;33.63;;
9667;SDS011;4872;48.316;10.650;2024-01-10T18:01:28;60.67;;;32.47;;
9667;SDS011;4872;48.316;10.650;2024-01-10T18:03:56;53.40;;;31.30;;
9667;SDS011;4872;48.316;10.650;2024-01-10T18:06:22;55.33;;;30.43;;
9667;SDS011;4872;48.316;10.650;2024-01-10T18:08:49;56.67;;;32.43;;
9667;SDS011;4872;48.316;10.650;2024-01-10T18:11:16;58.70;;;32.60;;
9667;SDS011;4872;48.316;10.650;2024-01-10T18:13:43;54.90;;;31.07;;
9667;SDS011;4872;48.316;10.650;2024-01-10T18:16:11;52.07;;;30.63;;
9667;SDS011;4872;48.316;10.650;2024-01-10T18:18:37;57.57;;;30.10;;
9667;SDS011;4872;48.316;10.650;2024-01-10T18:21:04;56.90;;;30.43;;
9667;SDS011;4872;48.316;10.650;2024-01-10T18:23:31;53.87;;;32.97;;
9667;SDS011;4872;48.316;10.650;2024-01-10T18:25:58;55.00;;;32.47;;
9667;SDS011;4872;48.316;10.650;2024-01-10T18:28:25;54.33;;;30.23;;
9667;SDS011;4872;48.316;10.650;2024-01-10T18:30:51;55.93;;;33.07;;
9667;SDS011;4872;48.316;10.650;2024-01-10T18:33:19;55.53;;;31.23;;
9667;SDS011;4872;48.316;10.650;2024-01-10T18:35:46;63.93;;;33.67;;
9667;SDS011;4872;48.316;10.650;2024-01-10T18:38:15;65.43;;;35.30;;
9667;SDS011;4872;48.316;10.650;2024-01-10T18:40:42;61.23;;;33.13;;
9667;SDS011;4872;48.316;10.650;2024-01-10T18:43:10;59.77;;;33.50;;
9667;SDS011;4872;48.316;10.650;2024-01-10T18:45:37;64.53;;;34.03;;
9667;SDS011;4872;48.316;10.650;2024-01-10T18:48:04;63.20;;;34.60;;
9667;SDS011;4872;48.316;10.650;2024-01-10T18:50:32;60.13;;;33.13;;
9667;SDS011;4872;48.316;10.650;2024-01-10T18:52:59;63.60;;;35.87;;
9667;SDS011;4872;48.316;10.650;2024-01-10T18:55:28;66.43;;;35.93;;
9667;SDS011;4872;48.316;10.650;2024-01-10T18:57:56;66.27;;;35.30;;
9667;SDS011;4872;48.316;10.650;2024-01-10T19:00:23;61.97;;;34.37;;
9667;SDS011;4872;48.316;10.650;2024-01-10T19:02:49;61.43;;;35.47;;
9667;SDS011;4872;48.316;10.650;2024-01-10T19:05:17;60.43;;;34.10;;
9667;SDS011;4872;48.316;10.650;2024-01-10T19:07:46;107.60;;;54.50;;
9667;SDS011;4872;48.316;10.650;2024-01-10T19:10:12;68.67;;;37.23;;
9667;SDS011;4872;48.316;10.650;2024-01-10T19:12:39;66.47;;;35.43;;
9667;SDS011;4872;48.316;10.650;2024-01-10T19:15:06;67.50;;;37.37;;
9667;SDS011;4872;48.316;10.650;2024-01-10T19:17:34;60.37;;;35.57;;
9667;SDS011;4872;48.316;10.650;2024-01-10T19:20:02;56.87;;;32.80;;
9667;SDS011;4872;48.316;10.650;2024-01-10T19:22:29;66.37;;;34.73;;
9667;SDS011;4872;48.316;10.650;2024-01-10T19:24:57;69.37;;;37.63;;
9667;SDS011;4872;48.316;10.650;2024-01-10T19:27:24;66.10;;;35.43;;
9667;SDS011;4872;48.316;10.650;2024-01-10T19:29:51;62.33;;;33.37;;
9667;SDS011;4872;48.316;10.650;2024-01-10T19:32:18;71.20;;;36.60;;
9667;SDS011;4872;48.316;10.650;2024-01-10T19:34:45;67.20;;;35.50;;
9667;SDS011;4872;48.316;10.650;2024-01-10T19:37:12;67.80;;;36.10;;
9667;SDS011;4872;48.316;10.650;2024-01-10T19:39:40;66.83;;;36.43;;
9667;SDS011;4872;48.316;10.650;2024-01-10T19:42:09;65.50;;;35.93;;
9667;SDS011;4872;48.316;10.650;2024-01-10T19:44:35;67.57;;;35.73;;
9667;SDS011;4872;48.316;10.650;2024-01-10T19:47:02;70.87;;;36.33;;
9667;SDS011;4872;48.316;10.650;2024-01-10T19:49:30;67.07;;;35.00;;